Basel/Mulhouse/Freiburg

Airport
ICAO code: 
LFSB
Summary
ICAO Region: 
EUR
Territory: 
Location: 
Saint-Louis, Alsace,
Coordinates: 
Aerial View: 
47° 35' 24" N, 7° 31' 45.001" E
Metar
Observation
LFSB 270330Z AUTO 22005KT 160V270 9999 -RA FEW020 SCT025 BKN033 04/01 Q0990 TEMPO 4000 -RA BKN008
Station
Bale-Mulhouse
Date/Time
2021-11-27 03:30:00
Wind direction
220°
Wind speed
05 kts
Lowest cloud amount
few clouds
Temperature
4°C
Dew point
1°C
Humidity
80%
QNH
990 hPa
Weather condition
light rain

Description

EuroAirport Basel-Mulhouse-Freiburg is an international airport 6 km northwest of Basel (Switzerland), 22 km southeast of Mulhouse (France), and 70 km south of Freiburg (Germany). It is located in France, on the administrative territory of the commune of Saint-Louis near the Swiss and German borders.

Climatology

Temperate Marine climate/Oceanic climate (Köppen climate classification Cfb). Moderately cool summer and comparatively warm winter. Prevailing south-westerly winds from the Atlantic Ocean.

Runways

Designator Length Width Surface Rops
8/26 1819 60 CON Yes/Yes
15/33 3900 60 CON Yes/Yes
Airport map: 
Aerial View: 

Accidents and Serious Incidents at or in the vicinity of LFSB

SKYbrary Partners:

Safety knowledge contributed by: